Charlevoix, MI

8:55 AM EDT on September 22, 2014 (GMT -0400)
1.5 W Ironton | Change Station
CLOSE
Current Station
Personal Weather Station
Location: Charlevoix, MI
Elevation: 750 ft
Nearby Weather Stations

Elev 750 ft 45.26 °N, 85.22 °W | Updated 10 seconds ago

Scattered Clouds
Scattered Clouds
46.8 °F
Feels Like 47 °F
N
3.0
Wind Variable Wind from WSW
Gusts 5.0 mph

Today
High -- | Low -- °F
--% Chance of Precip.
Yesterday
High -- | Low -- °F
Precip. -- in
7:28 AM 7:38 PM
Waning Crescent, 3% visible
Pressure 30.19 in
Visibility 10.0 miles
Clouds Scattered Clouds 1900 ft
Windchill 47 °F
Dew Point 42 °F
Humidity 83%
Rainfall 0.00 in
Snow Depth Not available.
UV 0 out of 12
Pollen 3.80 out of 12
Ozone Good
PM2.5 Good
Flu Activity Not available.
METAR KCVX 221234Z AUTO 31008KT 10SM SCT019 09/05 A3019 RMK AO2 T00930053

More Conditions Fewer Conditions

Pressure 30.19 in
Visibility 10.0 miles
Clouds Scattered Clouds 1900 ft
Windchill 47 °F
Dew Point 42 °F
Humidity 83%
Rainfall 0.00 in
Snow Depth Not available.
UV 0 out of 12
Pollen 3.80 out of 12
Ozone Good
PM2.5 Good
Flu Activity Not available.
METAR KCVX 221234Z AUTO 31008KT 10SM SCT019 09/05 A3019 RMK AO2 T00930053

More Conditions Fewer Conditions

Nowcast | as of 8:00 am EDT on September 22, 2014

At 9 am...partly cloudy. Temperature 48. Northwest winds 9 mph. At 11 am...partly cloudy. Temperature 52. West winds 10 mph. At 1 PM...partly cloudy. Temperature 57. West winds 13 mph. At 3 PM...partly cloudy. Temperature 60. West winds 14 mph.

×

10-Day Weather Forecast

Almanac

Astronomy

Sep. 22, 2014 Rise Set
Actual Time 7:28 AM EDT 7:38 PM EDT
Civil Twilight 6:58 AM EDT 8:07 PM EDT
Nautical Twilight 6:23 AM EDT 8:42 PM EDT
Astronomical Twilight 5:48 AM EDT 9:17 PM EDT
Moon 5:53 AM EDT 6:47 PM EDT
Length of Visible Light 13h 09m
Length of Day
12h 10m
Tomorrow will be 3m 10s shorter.
Waning Crescent, 3% of the Moon is Illuminated
Today
Waning Crescent
Sep 24
New
Oct 1
First Quarter
Oct 8
Full
Oct 15
Last Quarter

Today's Extremes

State Highs State Lows

Community

WunderPhotos

Upload Photos

1,755,419 photos uploaded!

Nearby

Air Quality

  Air Quality AQ Index Pollutant
Yesterday Good
OZONE
Yesterday Good
PM2.5
Current Good
PM2.5
Current Good
OZONE
Monday Good
OZONE
Monday Good
PM2.5

Snow Depth

Station Depth Elevation
No new snow has been reported.

Earthquake Activity

City Distance Mag. Time & Date
No recent earthquake activity has been reported nearby.
Minimum magnitude displayed is 2.5.

Coastal Water Temperatures

Place Temperature
Mackinaw City, MI 57.9 °F
Port Inland, MI 60.1 °F

Nearby Weather Stations